sensor_id;sensor_type;location;lat;lon;timestamp;temperature;humidity
16980;DHT22;42288;52.182;21.156;2023-12-22T00:01:41;4.60;99.90
16980;DHT22;42288;52.182;21.156;2023-12-22T00:04:07;4.60;99.90
16980;DHT22;42288;52.182;21.156;2023-12-22T00:06:33;4.60;99.90
16980;DHT22;42288;52.182;21.156;2023-12-22T00:08:59;4.60;99.90
16980;DHT22;42288;52.182;21.156;2023-12-22T00:11:25;4.60;99.90
16980;DHT22;42288;52.182;21.156;2023-12-22T00:13:51;4.60;99.90
16980;DHT22;42288;52.182;21.156;2023-12-22T00:16:17;4.60;99.90
16980;DHT22;42288;52.182;21.156;2023-12-22T00:18:42;4.60;99.90
16980;DHT22;42288;52.182;21.156;2023-12-22T00:21:11;4.60;99.90
16980;DHT22;42288;52.182;21.156;2023-12-22T00:23:37;4.60;99.90
16980;DHT22;42288;52.182;21.156;2023-12-22T00:26:04;4.60;99.90
16980;DHT22;42288;52.182;21.156;2023-12-22T00:28:30;4.50;99.90
16980;DHT22;42288;52.182;21.156;2023-12-22T00:30:57;4.50;99.90
16980;DHT22;42288;52.182;21.156;2023-12-22T00:33:23;4.60;99.90
16980;DHT22;42288;52.182;21.156;2023-12-22T00:35:49;4.50;99.90
16980;DHT22;42288;52.182;21.156;2023-12-22T00:38:15;4.60;99.90
16980;DHT22;42288;52.182;21.156;2023-12-22T00:40:41;4.50;99.90
16980;DHT22;42288;52.182;21.156;2023-12-22T00:43:06;4.50;99.90
16980;DHT22;42288;52.182;21.156;2023-12-22T00:45:32;4.50;99.90
16980;DHT22;42288;52.182;21.156;2023-12-22T00:47:58;4.40;99.90
16980;DHT22;42288;52.182;21.156;2023-12-22T00:50:23;4.40;99.90
16980;DHT22;42288;52.182;21.156;2023-12-22T00:52:52;4.40;99.90
16980;DHT22;42288;52.182;21.156;2023-12-22T00:55:17;4.30;99.90
16980;DHT22;42288;52.182;21.156;2023-12-22T00:57:43;4.40;99.90
16980;DHT22;42288;52.182;21.156;2023-12-22T01:00:13;4.30;99.90
16980;DHT22;42288;52.182;21.156;2023-12-22T01:02:38;4.30;99.90
16980;DHT22;42288;52.182;21.156;2023-12-22T01:05:04;4.40;99.90
16980;DHT22;42288;52.182;21.156;2023-12-22T01:07:30;4.40;99.90
16980;DHT22;42288;52.182;21.156;2023-12-22T01:09:56;4.30;99.90
16980;DHT22;42288;52.182;21.156;2023-12-22T01:12:27;4.30;99.90
16980;DHT22;42288;52.182;21.156;2023-12-22T01:14:53;4.30;99.90
16980;DHT22;42288;52.182;21.156;2023-12-22T01:17:19;4.30;99.90
16980;DHT22;42288;52.182;21.156;2023-12-22T01:19:44;4.20;99.90
16980;DHT22;42288;52.182;21.156;2023-12-22T01:22:11;4.10;99.90
16980;DHT22;42288;52.182;21.156;2023-12-22T01:24:36;4.20;99.90
16980;DHT22;42288;52.182;21.156;2023-12-22T01:27:05;4.10;99.90
16980;DHT22;42288;52.182;21.156;2023-12-22T01:29:30;4.10;99.90
16980;DHT22;42288;52.182;21.156;2023-12-22T01:31:56;4.10;99.90
16980;DHT22;42288;52.182;21.156;2023-12-22T01:34:22;4.10;99.90
16980;DHT22;42288;52.182;21.156;2023-12-22T01:36:47;4.00;99.90
16980;DHT22;42288;52.182;21.156;2023-12-22T01:39:13;4.00;99.90
16980;DHT22;42288;52.182;21.156;2023-12-22T01:41:39;4.00;99.90
16980;DHT22;42288;52.182;21.156;2023-12-22T01:44:05;4.00;99.90
16980;DHT22;42288;52.182;21.156;2023-12-22T01:46:32;3.90;99.90
16980;DHT22;42288;52.182;21.156;2023-12-22T01:48:59;3.90;99.90
16980;DHT22;42288;52.182;21.156;2023-12-22T01:51:28;4.00;99.90
16980;DHT22;42288;52.182;21.156;2023-12-22T01:53:54;4.00;99.90
16980;DHT22;42288;52.182;21.156;2023-12-22T01:56:20;4.00;99.90
16980;DHT22;42288;52.182;21.156;2023-12-22T01:58:46;4.10;99.90
16980;DHT22;42288;52.182;21.156;2023-12-22T02:01:15;4.20;99.90
16980;DHT22;42288;52.182;21.156;2023-12-22T02:04:10;4.10;99.90
16980;DHT22;42288;52.182;21.156;2023-12-22T02:06:37;4.10;99.90
16980;DHT22;42288;52.182;21.156;2023-12-22T02:09:04;4.00;99.90
16980;DHT22;42288;52.182;21.156;2023-12-22T02:11:30;4.00;99.90
16980;DHT22;42288;52.182;21.156;2023-12-22T02:13:56;4.00;99.90
16980;DHT22;42288;52.182;21.156;2023-12-22T02:22:10;4.00;99.90
16980;DHT22;42288;52.182;21.156;2023-12-22T02:24:40;4.10;99.90
16980;DHT22;42288;52.182;21.156;2023-12-22T02:27:37;4.00;99.90
16980;DHT22;42288;52.182;21.156;2023-12-22T02:32:43;4.10;99.90
16980;DHT22;42288;52.182;21.156;2023-12-22T02:35:25;4.10;99.90
16980;DHT22;42288;52.182;21.156;2023-12-22T02:37:51;4.20;99.90
16980;DHT22;42288;52.182;21.156;2023-12-22T02:40:18;4.10;99.90
16980;DHT22;42288;52.182;21.156;2023-12-22T02:42:45;4.20;99.90
16980;DHT22;42288;52.182;21.156;2023-12-22T02:45:15;4.20;99.90
16980;DHT22;42288;52.182;21.156;2023-12-22T02:47:43;4.40;99.90
16980;DHT22;42288;52.182;21.156;2023-12-22T02:50:09;4.30;99.90
16980;DHT22;42288;52.182;21.156;2023-12-22T02:52:35;4.30;99.90
16980;DHT22;42288;52.182;21.156;2023-12-22T02:55:02;4.30;99.90
16980;DHT22;42288;52.182;21.156;2023-12-22T02:57:27;4.30;99.90
16980;DHT22;42288;52.182;21.156;2023-12-22T02:59:53;4.40;99.90
16980;DHT22;42288;52.182;21.156;2023-12-22T03:02:19;4.30;99.90
16980;DHT22;42288;52.182;21.156;2023-12-22T03:04:44;4.30;99.90
16980;DHT22;42288;52.182;21.156;2023-12-22T03:07:12;4.30;99.90
16980;DHT22;42288;52.182;21.156;2023-12-22T03:09:37;4.30;99.90
16980;DHT22;42288;52.182;21.156;2023-12-22T03:12:03;4.30;99.90
16980;DHT22;42288;52.182;21.156;2023-12-22T03:14:30;4.50;99.90
16980;DHT22;42288;52.182;21.156;2023-12-22T03:16:56;4.30;99.90
16980;DHT22;42288;52.182;21.156;2023-12-22T03:19:22;4.40;99.90
16980;DHT22;42288;52.182;21.156;2023-12-22T03:21:50;4.40;99.90
16980;DHT22;42288;52.182;21.156;2023-12-22T03:24:16;4.40;99.90
16980;DHT22;42288;52.182;21.156;2023-12-22T03:26:44;4.40;99.90
16980;DHT22;42288;52.182;21.156;2023-12-22T03:29:10;4.30;99.90
16980;DHT22;42288;52.182;21.156;2023-12-22T03:31:36;4.20;99.90
16980;DHT22;42288;52.182;21.156;2023-12-22T03:34:04;4.20;99.90
16980;DHT22;42288;52.182;21.156;2023-12-22T03:36:30;4.20;99.90
16980;DHT22;42288;52.182;21.156;2023-12-22T03:38:55;4.10;99.90
16980;DHT22;42288;52.182;21.156;2023-12-22T03:41:21;4.10;99.90
16980;DHT22;42288;52.182;21.156;2023-12-22T03:43:47;4.20;99.90
16980;DHT22;42288;52.182;21.156;2023-12-22T03:46:12;4.10;99.90
16980;DHT22;42288;52.182;21.156;2023-12-22T03:48:38;4.20;99.90
16980;DHT22;42288;52.182;21.156;2023-12-22T03:51:03;4.10;99.90
16980;DHT22;42288;52.182;21.156;2023-12-22T03:53:29;4.20;99.90
16980;DHT22;42288;52.182;21.156;2023-12-22T03:55:55;4.20;99.90
16980;DHT22;42288;52.182;21.156;2023-12-22T03:58:20;4.10;99.90
16980;DHT22;42288;52.182;21.156;2023-12-22T04:00:46;4.20;99.90
16980;DHT22;42288;52.182;21.156;2023-12-22T04:03:12;4.10;99.90
16980;DHT22;42288;52.182;21.156;2023-12-22T04:05:38;4.20;99.90
16980;DHT22;42288;52.182;21.156;2023-12-22T04:08:05;4.20;99.90
16980;DHT22;42288;52.182;21.156;2023-12-22T04:10:31;4.10;99.90
16980;DHT22;42288;52.182;21.156;2023-12-22T04:12:57;4.10;99.90
16980;DHT22;42288;52.182;21.156;2023-12-22T04:15:22;4.20;99.90
16980;DHT22;42288;52.182;21.156;2023-12-22T04:17:50;4.30;99.90
16980;DHT22;42288;52.182;21.156;2023-12-22T04:20:16;4.30;99.90
16980;DHT22;42288;52.182;21.156;2023-12-22T04:22:42;4.40;99.90
16980;DHT22;42288;52.182;21.156;2023-12-22T04:25:08;4.30;99.90
16980;DHT22;42288;52.182;21.156;2023-12-22T04:27:34;4.30;99.90
16980;DHT22;42288;52.182;21.156;2023-12-22T04:30:00;4.30;99.90
16980;DHT22;42288;52.182;21.156;2023-12-22T04:32:26;4.30;99.90
16980;DHT22;42288;52.182;21.156;2023-12-22T04:34:52;4.30;99.90
16980;DHT22;42288;52.182;21.156;2023-12-22T04:37:17;4.20;99.90
16980;DHT22;42288;52.182;21.156;2023-12-22T04:39:43;4.30;99.90
16980;DHT22;42288;52.182;21.156;2023-12-22T04:42:09;4.30;99.90
16980;DHT22;42288;52.182;21.156;2023-12-22T04:44:34;4.40;99.90
16980;DHT22;42288;52.182;21.156;2023-12-22T04:47:00;4.50;99.90
16980;DHT22;42288;52.182;21.156;2023-12-22T04:49:26;4.40;99.90
16980;DHT22;42288;52.182;21.156;2023-12-22T04:51:52;4.50;99.90
16980;DHT22;42288;52.182;21.156;2023-12-22T04:54:17;4.50;99.90
16980;DHT22;42288;52.182;21.156;2023-12-22T04:56:43;4.50;99.90
16980;DHT22;42288;52.182;21.156;2023-12-22T04:59:09;4.50;99.90
16980;DHT22;42288;52.182;21.156;2023-12-22T05:01:34;4.40;99.90
16980;DHT22;42288;52.182;21.156;2023-12-22T05:04:00;4.40;99.90
16980;DHT22;42288;52.182;21.156;2023-12-22T05:06:27;4.40;99.90
16980;DHT22;42288;52.182;21.156;2023-12-22T05:08:54;4.20;99.90
16980;DHT22;42288;52.182;21.156;2023-12-22T05:11:20;4.20;99.90
16980;DHT22;42288;52.182;21.156;2023-12-22T05:13:46;4.20;99.90
16980;DHT22;42288;52.182;21.156;2023-12-22T05:16:14;4.20;99.90
16980;DHT22;42288;52.182;21.156;2023-12-22T05:18:40;4.00;99.90
16980;DHT22;42288;52.182;21.156;2023-12-22T05:21:07;4.00;99.90
16980;DHT22;42288;52.182;21.156;2023-12-22T05:23:33;3.90;99.90
16980;DHT22;42288;52.182;21.156;2023-12-22T05:25:58;3.90;99.90
16980;DHT22;42288;52.182;21.156;2023-12-22T05:28:24;3.90;99.90
16980;DHT22;42288;52.182;21.156;2023-12-22T05:30:50;4.00;99.90
16980;DHT22;42288;52.182;21.156;2023-12-22T05:33:15;3.90;99.90
16980;DHT22;42288;52.182;21.156;2023-12-22T05:35:41;3.90;99.90
16980;DHT22;42288;52.182;21.156;2023-12-22T05:38:07;4.00;99.90
16980;DHT22;42288;52.182;21.156;2023-12-22T05:40:32;4.00;99.90
16980;DHT22;42288;52.182;21.156;2023-12-22T05:42:58;4.10;99.90
16980;DHT22;42288;52.182;21.156;2023-12-22T05:45:24;4.10;99.90
16980;DHT22;42288;52.182;21.156;2023-12-22T05:47:50;4.10;99.90
16980;DHT22;42288;52.182;21.156;2023-12-22T05:50:16;4.10;99.90
16980;DHT22;42288;52.182;21.156;2023-12-22T05:52:42;4.10;99.90
16980;DHT22;42288;52.182;21.156;2023-12-22T05:55:11;4.20;99.90
16980;DHT22;42288;52.182;21.156;2023-12-22T05:57:37;4.20;99.90
16980;DHT22;42288;52.182;21.156;2023-12-22T06:00:04;4.10;99.90
16980;DHT22;42288;52.182;21.156;2023-12-22T06:02:33;3.90;99.90
16980;DHT22;42288;52.182;21.156;2023-12-22T06:04:59;3.80;99.90
16980;DHT22;42288;52.182;21.156;2023-12-22T06:07:26;3.80;99.90
16980;DHT22;42288;52.182;21.156;2023-12-22T06:09:52;3.60;99.90
16980;DHT22;42288;52.182;21.156;2023-12-22T06:12:18;3.60;99.90
16980;DHT22;42288;52.182;21.156;2023-12-22T06:14:43;3.60;99.90
16980;DHT22;42288;52.182;21.156;2023-12-22T06:17:09;3.60;99.90
16980;DHT22;42288;52.182;21.156;2023-12-22T06:19:38;3.50;99.90
16980;DHT22;42288;52.182;21.156;2023-12-22T06:22:04;3.50;99.90
16980;DHT22;42288;52.182;21.156;2023-12-22T06:24:30;3.50;99.90
16980;DHT22;42288;52.182;21.156;2023-12-22T06:26:58;3.60;99.90
16980;DHT22;42288;52.182;21.156;2023-12-22T06:29:24;3.60;99.90
16980;DHT22;42288;52.182;21.156;2023-12-22T06:31:50;3.70;99.90
16980;DHT22;42288;52.182;21.156;2023-12-22T06:34:19;3.90;99.90
16980;DHT22;42288;52.182;21.156;2023-12-22T06:36:44;3.90;99.90
16980;DHT22;42288;52.182;21.156;2023-12-22T06:39:10;4.00;99.90
16980;DHT22;42288;52.182;21.156;2023-12-22T06:41:36;4.10;99.90
16980;DHT22;42288;52.182;21.156;2023-12-22T06:44:01;4.20;99.90
16980;DHT22;42288;52.182;21.156;2023-12-22T06:46:27;4.30;99.90
16980;DHT22;42288;52.182;21.156;2023-12-22T06:48:55;4.30;99.90
16980;DHT22;42288;52.182;21.156;2023-12-22T06:51:29;4.40;99.90
16980;DHT22;42288;52.182;21.156;2023-12-22T06:54:01;4.40;99.90
16980;DHT22;42288;52.182;21.156;2023-12-22T06:56:28;4.40;99.90
16980;DHT22;42288;52.182;21.156;2023-12-22T06:58:56;4.40;99.90
16980;DHT22;42288;52.182;21.156;2023-12-22T07:01:30;4.50;99.90
16980;DHT22;42288;52.182;21.156;2023-12-22T07:04:00;4.40;99.90
16980;DHT22;42288;52.182;21.156;2023-12-22T07:06:28;4.50;99.90
16980;DHT22;42288;52.182;21.156;2023-12-22T07:11:39;4.60;99.90
16980;DHT22;42288;52.182;21.156;2023-12-22T07:14:05;4.60;99.90
16980;DHT22;42288;52.182;21.156;2023-12-22T07:16:32;4.50;99.90
16980;DHT22;42288;52.182;21.156;2023-12-22T07:18:58;4.50;99.90
16980;DHT22;42288;52.182;21.156;2023-12-22T07:21:23;4.50;99.90
16980;DHT22;42288;52.182;21.156;2023-12-22T07:23:49;4.50;99.90
16980;DHT22;42288;52.182;21.156;2023-12-22T07:26:15;4.40;99.90
16980;DHT22;42288;52.182;21.156;2023-12-22T07:28:40;4.50;99.90
16980;DHT22;42288;52.182;21.156;2023-12-22T07:31:06;4.50;99.90
16980;DHT22;42288;52.182;21.156;2023-12-22T07:33:32;4.50;99.90
16980;DHT22;42288;52.182;21.156;2023-12-22T07:35:57;4.50;99.90
16980;DHT22;42288;52.182;21.156;2023-12-22T07:38:23;4.60;99.90
16980;DHT22;42288;52.182;21.156;2023-12-22T07:40:49;4.50;99.90
16980;DHT22;42288;52.182;21.156;2023-12-22T07:43:15;4.50;99.90
16980;DHT22;42288;52.182;21.156;2023-12-22T07:45:41;4.50;99.90
16980;DHT22;42288;52.182;21.156;2023-12-22T07:48:07;4.50;99.90
16980;DHT22;42288;52.182;21.156;2023-12-22T07:50:33;4.60;99.90
16980;DHT22;42288;52.182;21.156;2023-12-22T07:52:58;4.60;99.90
16980;DHT22;42288;52.182;21.156;2023-12-22T07:55:24;4.50;99.90
16980;DHT22;42288;52.182;21.156;2023-12-22T07:57:50;4.40;99.90
16980;DHT22;42288;52.182;21.156;2023-12-22T08:00:17;4.40;99.90
16980;DHT22;42288;52.182;21.156;2023-12-22T08:02:42;4.30;99.90
16980;DHT22;42288;52.182;21.156;2023-12-22T08:05:08;4.30;99.90
16980;DHT22;42288;52.182;21.156;2023-12-22T08:07:35;4.20;99.90
16980;DHT22;42288;52.182;21.156;2023-12-22T08:10:01;4.20;99.90
16980;DHT22;42288;52.182;21.156;2023-12-22T08:12:27;4.10;99.90
16980;DHT22;42288;52.182;21.156;2023-12-22T08:14:53;4.10;99.90
16980;DHT22;42288;52.182;21.156;2023-12-22T08:17:19;4.20;99.90
16980;DHT22;42288;52.182;21.156;2023-12-22T08:19:45;4.30;99.90
16980;DHT22;42288;52.182;21.156;2023-12-22T08:22:13;4.40;99.90
16980;DHT22;42288;52.182;21.156;2023-12-22T08:24:39;4.40;99.90
16980;DHT22;42288;52.182;21.156;2023-12-22T08:27:05;4.40;99.90
16980;DHT22;42288;52.182;21.156;2023-12-22T08:29:32;4.30;99.90
16980;DHT22;42288;52.182;21.156;2023-12-22T08:31:58;4.20;99.90
16980;DHT22;42288;52.182;21.156;2023-12-22T08:34:24;4.20;99.90
16980;DHT22;42288;52.182;21.156;2023-12-22T08:36:52;4.20;99.90
16980;DHT22;42288;52.182;21.156;2023-12-22T08:39:18;4.20;99.90
16980;DHT22;42288;52.182;21.156;2023-12-22T08:41:45;4.20;99.90
16980;DHT22;42288;52.182;21.156;2023-12-22T08:44:11;4.30;99.90
16980;DHT22;42288;52.182;21.156;2023-12-22T08:46:40;4.40;99.90
16980;DHT22;42288;52.182;21.156;2023-12-22T08:49:06;4.30;99.90
16980;DHT22;42288;52.182;21.156;2023-12-22T08:51:31;4.30;99.90
16980;DHT22;42288;52.182;21.156;2023-12-22T08:53:58;4.30;99.90
16980;DHT22;42288;52.182;21.156;2023-12-22T08:56:27;4.40;99.90
16980;DHT22;42288;52.182;21.156;2023-12-22T08:58:54;4.40;99.90
16980;DHT22;42288;52.182;21.156;2023-12-22T09:01:25;4.50;99.90
16980;DHT22;42288;52.182;21.156;2023-12-22T09:03:54;4.50;99.90
16980;DHT22;42288;52.182;21.156;2023-12-22T09:06:21;4.40;99.90
16980;DHT22;42288;52.182;21.156;2023-12-22T09:08:47;4.50;99.90
16980;DHT22;42288;52.182;21.156;2023-12-22T09:11:16;4.50;99.90
16980;DHT22;42288;52.182;21.156;2023-12-22T09:13:42;4.60;99.90
16980;DHT22;42288;52.182;21.156;2023-12-22T09:16:09;4.60;99.90
16980;DHT22;42288;52.182;21.156;2023-12-22T09:18:35;4.60;99.90
16980;DHT22;42288;52.182;21.156;2023-12-22T09:21:01;4.80;99.90
16980;DHT22;42288;52.182;21.156;2023-12-22T09:23:28;5.10;99.90
16980;DHT22;42288;52.182;21.156;2023-12-22T09:25:54;4.90;99.90
16980;DHT22;42288;52.182;21.156;2023-12-22T09:28:20;4.90;99.90
16980;DHT22;42288;52.182;21.156;2023-12-22T09:30:46;4.80;99.90
16980;DHT22;42288;52.182;21.156;2023-12-22T09:33:11;4.90;99.90
16980;DHT22;42288;52.182;21.156;2023-12-22T09:35:38;5.00;99.90
16980;DHT22;42288;52.182;21.156;2023-12-22T09:38:07;5.20;99.90
16980;DHT22;42288;52.182;21.156;2023-12-22T09:40:34;5.30;99.90
16980;DHT22;42288;52.182;21.156;2023-12-22T09:43:02;5.40;99.90
16980;DHT22;42288;52.182;21.156;2023-12-22T09:45:30;5.40;99.90
16980;DHT22;42288;52.182;21.156;2023-12-22T09:47:56;5.70;99.90
16980;DHT22;42288;52.182;21.156;2023-12-22T09:50:24;5.90;99.90
16980;DHT22;42288;52.182;21.156;2023-12-22T09:52:51;6.10;99.90
16980;DHT22;42288;52.182;21.156;2023-12-22T09:55:17;6.20;99.90
16980;DHT22;42288;52.182;21.156;2023-12-22T09:57:45;6.10;99.90
16980;DHT22;42288;52.182;21.156;2023-12-22T10:00:11;6.50;99.90
16980;DHT22;42288;52.182;21.156;2023-12-22T10:02:39;6.60;99.90
16980;DHT22;42288;52.182;21.156;2023-12-22T10:05:05;6.20;99.90
16980;DHT22;42288;52.182;21.156;2023-12-22T10:07:31;6.10;99.90
16980;DHT22;42288;52.182;21.156;2023-12-22T10:09:59;5.80;99.90
16980;DHT22;42288;52.182;21.156;2023-12-22T10:12:29;6.00;99.90
16980;DHT22;42288;52.182;21.156;2023-12-22T10:14:59;5.70;99.90
16980;DHT22;42288;52.182;21.156;2023-12-22T10:17:25;5.80;99.90
16980;DHT22;42288;52.182;21.156;2023-12-22T10:19:51;5.60;99.90
16980;DHT22;42288;52.182;21.156;2023-12-22T10:22:17;5.70;99.90
16980;DHT22;42288;52.182;21.156;2023-12-22T10:24:46;5.30;99.90
16980;DHT22;42288;52.182;21.156;2023-12-22T10:27:16;3.40;99.90
16980;DHT22;42288;52.182;21.156;2023-12-22T10:29:56;2.20;99.90
16980;DHT22;42288;52.182;21.156;2023-12-22T10:32:22;2.00;99.90
16980;DHT22;42288;52.182;21.156;2023-12-22T10:34:51;1.70;99.90
16980;DHT22;42288;52.182;21.156;2023-12-22T10:37:16;1.40;99.90
16980;DHT22;42288;52.182;21.156;2023-12-22T10:39:42;1.20;99.90
16980;DHT22;42288;52.182;21.156;2023-12-22T10:42:09;1.10;99.90
16980;DHT22;42288;52.182;21.156;2023-12-22T10:44:40;1.00;99.90
16980;DHT22;42288;52.182;21.156;2023-12-22T10:47:06;0.90;99.90
16980;DHT22;42288;52.182;21.156;2023-12-22T10:49:31;0.80;99.90
16980;DHT22;42288;52.182;21.156;2023-12-22T10:51:57;0.80;99.90
16980;DHT22;42288;52.182;21.156;2023-12-22T10:54:23;0.80;99.90
16980;DHT22;42288;52.182;21.156;2023-12-22T10:56:49;0.80;99.90
16980;DHT22;42288;52.182;21.156;2023-12-22T10:59:23;0.80;99.90
16980;DHT22;42288;52.182;21.156;2023-12-22T11:01:51;0.80;99.90
16980;DHT22;42288;52.182;21.156;2023-12-22T11:04:20;0.80;99.90
16980;DHT22;42288;52.182;21.156;2023-12-22T11:06:47;0.80;99.90
16980;DHT22;42288;52.182;21.156;2023-12-22T11:09:16;0.80;99.90
16980;DHT22;42288;52.182;21.156;2023-12-22T11:11:43;0.80;99.90
16980;DHT22;42288;52.182;21.156;2023-12-22T11:14:10;0.90;99.90
16980;DHT22;42288;52.182;21.156;2023-12-22T11:16:36;1.00;99.90
16980;DHT22;42288;52.182;21.156;2023-12-22T11:19:03;1.00;99.90
16980;DHT22;42288;52.182;21.156;2023-12-22T11:21:29;1.00;99.90
16980;DHT22;42288;52.182;21.156;2023-12-22T11:23:57;1.00;99.90
16980;DHT22;42288;52.182;21.156;2023-12-22T11:26:24;1.00;99.90
16980;DHT22;42288;52.182;21.156;2023-12-22T11:28:51;1.00;99.90
16980;DHT22;42288;52.182;21.156;2023-12-22T11:31:17;1.00;99.90
16980;DHT22;42288;52.182;21.156;2023-12-22T11:33:45;1.00;99.90
16980;DHT22;42288;52.182;21.156;2023-12-22T11:36:12;1.00;99.90
16980;DHT22;42288;52.182;21.156;2023-12-22T11:38:43;1.10;99.90
16980;DHT22;42288;52.182;21.156;2023-12-22T11:41:11;1.20;99.90
16980;DHT22;42288;52.182;21.156;2023-12-22T11:43:39;1.30;99.90
16980;DHT22;42288;52.182;21.156;2023-12-22T11:46:05;1.30;99.90
16980;DHT22;42288;52.182;21.156;2023-12-22T11:48:31;1.20;99.90
16980;DHT22;42288;52.182;21.156;2023-12-22T11:50:57;1.30;99.90
16980;DHT22;42288;52.182;21.156;2023-12-22T11:53:24;1.30;99.90
16980;DHT22;42288;52.182;21.156;2023-12-22T11:56:07;1.30;99.90
16980;DHT22;42288;52.182;21.156;2023-12-22T12:01:02;1.50;99.90
16980;DHT22;42288;52.182;21.156;2023-12-22T12:03:30;1.70;99.90
16980;DHT22;42288;52.182;21.156;2023-12-22T12:06:16;1.70;99.90
16980;DHT22;42288;52.182;21.156;2023-12-22T12:08:43;1.50;99.90
16980;DHT22;42288;52.182;21.156;2023-12-22T12:11:08;1.80;99.90
16980;DHT22;42288;52.182;21.156;2023-12-22T12:13:34;1.80;99.90
16980;DHT22;42288;52.182;21.156;2023-12-22T12:16:03;1.70;99.90
16980;DHT22;42288;52.182;21.156;2023-12-22T12:18:32;1.80;99.90
16980;DHT22;42288;52.182;21.156;2023-12-22T12:20:59;1.90;99.90
16980;DHT22;42288;52.182;21.156;2023-12-22T12:23:27;1.90;99.90
16980;DHT22;42288;52.182;21.156;2023-12-22T12:25:54;1.90;99.90
16980;DHT22;42288;52.182;21.156;2023-12-22T12:28:25;2.00;99.90
16980;DHT22;42288;52.182;21.156;2023-12-22T12:30:58;1.90;99.90
16980;DHT22;42288;52.182;21.156;2023-12-22T12:33:25;1.90;99.90
16980;DHT22;42288;52.182;21.156;2023-12-22T12:35:53;1.90;99.90
16980;DHT22;42288;52.182;21.156;2023-12-22T12:38:28;2.30;99.90
16980;DHT22;42288;52.182;21.156;2023-12-22T12:41:04;2.10;99.90
16980;DHT22;42288;52.182;21.156;2023-12-22T12:43:31;2.20;99.90
16980;DHT22;42288;52.182;21.156;2023-12-22T12:46:07;2.10;99.90
16980;DHT22;42288;52.182;21.156;2023-12-22T12:48:34;1.90;99.90
16980;DHT22;42288;52.182;21.156;2023-12-22T12:51:06;2.10;99.90
16980;DHT22;42288;52.182;21.156;2023-12-22T12:53:33;1.90;99.90
16980;DHT22;42288;52.182;21.156;2023-12-22T12:55:59;1.90;99.90
16980;DHT22;42288;52.182;21.156;2023-12-22T12:58:29;2.20;99.90
16980;DHT22;42288;52.182;21.156;2023-12-22T13:01:07;2.10;99.90
16980;DHT22;42288;52.182;21.156;2023-12-22T13:03:32;1.80;99.90
16980;DHT22;42288;52.182;21.156;2023-12-22T13:06:08;1.80;99.90
16980;DHT22;42288;52.182;21.156;2023-12-22T13:08:34;2.20;99.90
16980;DHT22;42288;52.182;21.156;2023-12-22T13:11:00;2.10;99.90
16980;DHT22;42288;52.182;21.156;2023-12-22T13:13:29;2.00;99.90
16980;DHT22;42288;52.182;21.156;2023-12-22T13:15:55;2.00;99.90
16980;DHT22;42288;52.182;21.156;2023-12-22T13:18:21;2.20;99.90
16980;DHT22;42288;52.182;21.156;2023-12-22T13:20:47;1.90;99.90
16980;DHT22;42288;52.182;21.156;2023-12-22T13:23:17;2.00;99.90
16980;DHT22;42288;52.182;21.156;2023-12-22T13:25:43;2.00;99.90
16980;DHT22;42288;52.182;21.156;2023-12-22T13:28:09;2.00;99.90
16980;DHT22;42288;52.182;21.156;2023-12-22T13:30:35;2.00;99.90
16980;DHT22;42288;52.182;21.156;2023-12-22T13:33:02;2.00;99.90
16980;DHT22;42288;52.182;21.156;2023-12-22T13:35:28;2.00;99.90
16980;DHT22;42288;52.182;21.156;2023-12-22T13:37:54;2.00;99.90
16980;DHT22;42288;52.182;21.156;2023-12-22T13:40:20;2.10;99.90
16980;DHT22;42288;52.182;21.156;2023-12-22T13:42:56;2.10;99.90
16980;DHT22;42288;52.182;21.156;2023-12-22T13:45:24;2.10;99.90
16980;DHT22;42288;52.182;21.156;2023-12-22T13:47:50;2.10;99.90
16980;DHT22;42288;52.182;21.156;2023-12-22T13:50:16;2.10;99.90
16980;DHT22;42288;52.182;21.156;2023-12-22T13:52:42;2.10;99.90
16980;DHT22;42288;52.182;21.156;2023-12-22T13:55:15;2.00;99.90
16980;DHT22;42288;52.182;21.156;2023-12-22T13:57:41;2.00;99.90
16980;DHT22;42288;52.182;21.156;2023-12-22T14:02:45;2.00;99.90
16980;DHT22;42288;52.182;21.156;2023-12-22T14:05:17;2.00;99.90
16980;DHT22;42288;52.182;21.156;2023-12-22T14:07:43;2.00;99.90
16980;DHT22;42288;52.182;21.156;2023-12-22T14:10:11;2.00;99.90
16980;DHT22;42288;52.182;21.156;2023-12-22T14:12:37;1.90;99.90
16980;DHT22;42288;52.182;21.156;2023-12-22T14:15:07;2.00;99.90
16980;DHT22;42288;52.182;21.156;2023-12-22T14:17:33;2.00;99.90
16980;DHT22;42288;52.182;21.156;2023-12-22T14:19:58;2.00;99.90
16980;DHT22;42288;52.182;21.156;2023-12-22T14:22:24;2.00;99.90
16980;DHT22;42288;52.182;21.156;2023-12-22T14:24:50;1.90;99.90
16980;DHT22;42288;52.182;21.156;2023-12-22T14:27:16;2.00;99.90
16980;DHT22;42288;52.182;21.156;2023-12-22T14:29:45;1.90;99.90
16980;DHT22;42288;52.182;21.156;2023-12-22T14:32:11;1.90;99.90
16980;DHT22;42288;52.182;21.156;2023-12-22T14:34:38;1.90;99.90
16980;DHT22;42288;52.182;21.156;2023-12-22T14:37:04;1.90;99.90
16980;DHT22;42288;52.182;21.156;2023-12-22T14:39:29;1.90;99.90
16980;DHT22;42288;52.182;21.156;2023-12-22T14:41:56;1.80;99.90
16980;DHT22;42288;52.182;21.156;2023-12-22T14:44:22;1.90;99.90
16980;DHT22;42288;52.182;21.156;2023-12-22T14:46:48;1.90;99.90
16980;DHT22;42288;52.182;21.156;2023-12-22T14:49:13;1.90;99.90
16980;DHT22;42288;52.182;21.156;2023-12-22T14:51:39;1.80;99.90
16980;DHT22;42288;52.182;21.156;2023-12-22T14:54:06;1.80;99.90
16980;DHT22;42288;52.182;21.156;2023-12-22T14:56:32;1.90;99.90
16980;DHT22;42288;52.182;21.156;2023-12-22T14:58:58;1.80;99.90
16980;DHT22;42288;52.182;21.156;2023-12-22T15:01:24;1.80;99.90
16980;DHT22;42288;52.182;21.156;2023-12-22T15:03:49;1.80;99.90
16980;DHT22;42288;52.182;21.156;2023-12-22T15:06:15;1.90;99.90
16980;DHT22;42288;52.182;21.156;2023-12-22T15:08:41;1.80;99.90
16980;DHT22;42288;52.182;21.156;2023-12-22T15:11:07;1.80;99.90
16980;DHT22;42288;52.182;21.156;2023-12-22T15:13:34;1.80;99.90
16980;DHT22;42288;52.182;21.156;2023-12-22T15:16:04;1.80;99.90
16980;DHT22;42288;52.182;21.156;2023-12-22T15:18:30;1.80;99.90
16980;DHT22;42288;52.182;21.156;2023-12-22T15:20:55;1.90;99.90
16980;DHT22;42288;52.182;21.156;2023-12-22T15:23:21;1.80;99.90
16980;DHT22;42288;52.182;21.156;2023-12-22T15:25:46;1.90;99.90
16980;DHT22;42288;52.182;21.156;2023-12-22T15:28:12;1.90;99.90
16980;DHT22;42288;52.182;21.156;2023-12-22T15:30:38;1.90;99.90
16980;DHT22;42288;52.182;21.156;2023-12-22T15:33:03;1.80;99.90
16980;DHT22;42288;52.182;21.156;2023-12-22T15:35:29;1.80;99.90
16980;DHT22;42288;52.182;21.156;2023-12-22T15:37:55;1.80;99.90
16980;DHT22;42288;52.182;21.156;2023-12-22T15:40:20;1.80;99.90
16980;DHT22;42288;52.182;21.156;2023-12-22T15:42:46;1.80;99.90
16980;DHT22;42288;52.182;21.156;2023-12-22T15:45:11;1.80;99.90